sensor_id;sensor_type;location;lat;lon;timestamp;pressure;altitude;pressure_sealevel;temperature;humidity
42859;BME280;28505;56.970;40.998;2023-02-04T00:00:04;99686.03;;;-1.01;100.00
42859;BME280;28505;56.970;40.998;2023-02-04T00:05:35;99677.13;;;-1.06;100.00
42859;BME280;28505;56.970;40.998;2023-02-04T00:11:01;99683.47;;;-1.07;100.00
42859;BME280;28505;56.970;40.998;2023-02-04T00:16:24;99674.13;;;-1.10;100.00
42859;BME280;28505;56.970;40.998;2023-02-04T00:21:46;99673.78;;;-1.13;100.00
42859;BME280;28505;56.970;40.998;2023-02-04T00:27:08;99661.09;;;-1.23;100.00
42859;BME280;28505;56.970;40.998;2023-02-04T00:32:30;99696.69;;;-1.07;100.00
42859;BME280;28505;56.970;40.998;2023-02-04T00:37:53;99675.91;;;-1.22;100.00
42859;BME280;28505;56.970;40.998;2023-02-04T00:43:15;99702.00;;;-1.07;100.00
42859;BME280;28505;56.970;40.998;2023-02-04T00:48:36;99693.19;;;-1.20;100.00
42859;BME280;28505;56.970;40.998;2023-02-04T00:53:59;99693.53;;;-1.16;100.00
42859;BME280;28505;56.970;40.998;2023-02-04T00:59:20;99701.19;;;-1.08;100.00
42859;BME280;28505;56.970;40.998;2023-02-04T01:04:41;99673.94;;;-1.27;100.00
42859;BME280;28505;56.970;40.998;2023-02-04T01:10:06;99674.59;;;-1.31;100.00
42859;BME280;28505;56.970;40.998;2023-02-04T01:15:28;99658.00;;;-1.38;100.00
42859;BME280;28505;56.970;40.998;2023-02-04T01:20:51;99710.56;;;-1.12;100.00
42859;BME280;28505;56.970;40.998;2023-02-04T01:26:16;99692.81;;;-1.23;100.00
42859;BME280;28505;56.970;40.998;2023-02-04T01:31:38;99675.44;;;-1.31;100.00
42859;BME280;28505;56.970;40.998;2023-02-04T01:37:00;99680.91;;;-1.32;100.00
42859;BME280;28505;56.970;40.998;2023-02-04T01:42:22;99699.50;;;-1.21;100.00
42859;BME280;28505;56.970;40.998;2023-02-04T01:47:44;99722.91;;;-1.06;100.00
42859;BME280;28505;56.970;40.998;2023-02-04T01:53:08;99697.31;;;-1.24;100.00
42859;BME280;28505;56.970;40.998;2023-02-04T01:58:31;99703.75;;;-1.20;100.00
42859;BME280;28505;56.970;40.998;2023-02-04T02:03:53;99708.44;;;-1.22;100.00
42859;BME280;28505;56.970;40.998;2023-02-04T02:09:16;99710.72;;;-1.25;100.00
42859;BME280;28505;56.970;40.998;2023-02-04T02:14:37;99730.94;;;-1.12;100.00
42859;BME280;28505;56.970;40.998;2023-02-04T02:19:59;99716.81;;;-1.25;100.00
42859;BME280;28505;56.970;40.998;2023-02-04T02:25:23;99745.13;;;-1.07;100.00
42859;BME280;28505;56.970;40.998;2023-02-04T02:30:47;99731.44;;;-1.22;100.00
42859;BME280;28505;56.970;40.998;2023-02-04T02:36:10;99727.78;;;-1.21;100.00
42859;BME280;28505;56.970;40.998;2023-02-04T02:41:33;99743.19;;;-1.18;100.00
42859;BME280;28505;56.970;40.998;2023-02-04T02:46:55;99741.59;;;-1.19;100.00
42859;BME280;28505;56.970;40.998;2023-02-04T02:52:18;99740.72;;;-1.13;100.00
42859;BME280;28505;56.970;40.998;2023-02-04T02:57:41;99745.19;;;-1.13;100.00
42859;BME280;28505;56.970;40.998;2023-02-04T03:03:19;99749.31;;;-1.17;100.00
42859;BME280;28505;56.970;40.998;2023-02-04T03:08:43;99767.88;;;-1.06;100.00
42859;BME280;28505;56.970;40.998;2023-02-04T03:14:06;99756.81;;;-1.14;100.00
42859;BME280;28505;56.970;40.998;2023-02-04T03:19:28;99756.22;;;-1.16;100.00
42859;BME280;28505;56.970;40.998;2023-02-04T03:24:51;99765.69;;;-1.09;100.00
42859;BME280;28505;56.970;40.998;2023-02-04T03:30:15;99749.88;;;-1.15;100.00
42859;BME280;28505;56.970;40.998;2023-02-04T03:35:38;99742.03;;;-1.22;100.00
42859;BME280;28505;56.970;40.998;2023-02-04T03:41:00;99797.88;;;-0.93;100.00
42859;BME280;28505;56.970;40.998;2023-02-04T03:46:22;99805.38;;;-0.90;100.00
42859;BME280;28505;56.970;40.998;2023-02-04T03:51:46;99773.63;;;-1.09;100.00
42859;BME280;28505;56.970;40.998;2023-02-04T03:57:11;99806.78;;;-0.88;100.00
42859;BME280;28505;56.970;40.998;2023-02-04T04:02:33;99803.16;;;-0.93;100.00
42859;BME280;28505;56.970;40.998;2023-02-04T04:07:55;99819.66;;;-0.91;100.00
42859;BME280;28505;56.970;40.998;2023-02-04T04:13:18;99824.09;;;-0.92;100.00
42859;BME280;28505;56.970;40.998;2023-02-04T04:18:40;99819.50;;;-0.97;100.00
42859;BME280;28505;56.970;40.998;2023-02-04T04:24:02;99830.22;;;-0.91;100.00
42859;BME280;28505;56.970;40.998;2023-02-04T04:29:24;99835.72;;;-0.93;100.00
42859;BME280;28505;56.970;40.998;2023-02-04T04:34:46;99832.13;;;-0.99;100.00
42859;BME280;28505;56.970;40.998;2023-02-04T04:40:10;99846.75;;;-0.96;100.00
42859;BME280;28505;56.970;40.998;2023-02-04T04:45:34;99854.94;;;-0.98;100.00
42859;BME280;28505;56.970;40.998;2023-02-04T04:50:56;99858.13;;;-0.96;100.00
42859;BME280;28505;56.970;40.998;2023-02-04T04:56:19;99857.56;;;-0.98;100.00
42859;BME280;28505;56.970;40.998;2023-02-04T05:01:41;99866.88;;;-0.95;100.00
42859;BME280;28505;56.970;40.998;2023-02-04T05:07:03;99857.03;;;-1.06;100.00
42859;BME280;28505;56.970;40.998;2023-02-04T05:12:25;99862.94;;;-1.04;100.00
42859;BME280;28505;56.970;40.998;2023-02-04T05:17:46;99870.44;;;-1.01;100.00
42859;BME280;28505;56.970;40.998;2023-02-04T05:23:08;99876.53;;;-1.01;100.00
42859;BME280;28505;56.970;40.998;2023-02-04T05:28:30;99887.91;;;-1.00;100.00
42859;BME280;28505;56.970;40.998;2023-02-04T05:33:52;99882.69;;;-1.07;100.00
42859;BME280;28505;56.970;40.998;2023-02-04T05:39:14;99867.59;;;-1.25;100.00
42859;BME280;28505;56.970;40.998;2023-02-04T05:44:37;99908.13;;;-1.06;100.00
42859;BME280;28505;56.970;40.998;2023-02-04T05:49:59;99907.75;;;-1.09;100.00
42859;BME280;28505;56.970;40.998;2023-02-04T05:55:22;99922.50;;;-1.02;100.00
42859;BME280;28505;56.970;40.998;2023-02-04T06:00:45;99922.09;;;-0.99;100.00
42859;BME280;28505;56.970;40.998;2023-02-04T06:06:07;99934.44;;;-0.92;100.00
42859;BME280;28505;56.970;40.998;2023-02-04T06:11:31;99922.94;;;-1.05;100.00
42859;BME280;28505;56.970;40.998;2023-02-04T06:16:53;99950.94;;;-0.90;100.00
42859;BME280;28505;56.970;40.998;2023-02-04T06:22:15;99948.53;;;-0.99;100.00
42859;BME280;28505;56.970;40.998;2023-02-04T06:27:38;99966.81;;;-0.90;100.00
42859;BME280;28505;56.970;40.998;2023-02-04T06:33:00;99971.66;;;-0.87;100.00
42859;BME280;28505;56.970;40.998;2023-02-04T06:38:21;99968.84;;;-0.92;100.00
42859;BME280;28505;56.970;40.998;2023-02-04T06:43:43;99970.03;;;-0.88;100.00
42859;BME280;28505;56.970;40.998;2023-02-04T06:49:05;99985.88;;;-0.82;100.00
42859;BME280;28505;56.970;40.998;2023-02-04T06:54:27;100000.06;;;-0.76;100.00
42859;BME280;28505;56.970;40.998;2023-02-04T06:59:57;99999.84;;;-0.75;100.00
42859;BME280;28505;56.970;40.998;2023-02-04T07:05:24;99989.75;;;-0.84;100.00
42859;BME280;28505;56.970;40.998;2023-02-04T07:10:47;100002.69;;;-0.76;100.00
42859;BME280;28505;56.970;40.998;2023-02-04T07:16:09;100010.38;;;-0.68;100.00
42859;BME280;28505;56.970;40.998;2023-02-04T07:21:31;100006.59;;;-0.79;100.00
42859;BME280;28505;56.970;40.998;2023-02-04T07:26:53;100027.22;;;-0.62;100.00
42859;BME280;28505;56.970;40.998;2023-02-04T07:32:16;100009.16;;;-0.72;100.00
42859;BME280;28505;56.970;40.998;2023-02-04T07:37:38;100009.34;;;-0.67;100.00
42859;BME280;28505;56.970;40.998;2023-02-04T07:42:59;100023.91;;;-0.58;100.00
42859;BME280;28505;56.970;40.998;2023-02-04T07:48:22;100015.00;;;-0.63;100.00
42859;BME280;28505;56.970;40.998;2023-02-04T07:53:44;100038.94;;;-0.52;100.00
42859;BME280;28505;56.970;40.998;2023-02-04T07:59:06;100046.44;;;-0.49;100.00
42859;BME280;28505;56.970;40.998;2023-02-04T08:04:28;100051.31;;;-0.45;100.00
42859;BME280;28505;56.970;40.998;2023-02-04T08:09:51;100048.97;;;-0.35;100.00
42859;BME280;28505;56.970;40.998;2023-02-04T08:15:14;100070.09;;;-0.29;100.00
42859;BME280;28505;56.970;40.998;2023-02-04T08:20:36;100049.03;;;-0.42;100.00
42859;BME280;28505;56.970;40.998;2023-02-04T08:25:58;100073.31;;;-0.27;100.00
42859;BME280;28505;56.970;40.998;2023-02-04T08:31:20;100061.91;;;-0.27;100.00
42859;BME280;28505;56.970;40.998;2023-02-04T08:36:42;100084.25;;;-0.16;100.00
42859;BME280;28505;56.970;40.998;2023-02-04T08:42:05;100068.78;;;-0.19;100.00
42859;BME280;28505;56.970;40.998;2023-02-04T08:47:27;100089.63;;;-0.05;100.00
42859;BME280;28505;56.970;40.998;2023-02-04T08:52:48;100066.44;;;-0.09;100.00
42859;BME280;28505;56.970;40.998;2023-02-04T08:58:13;100082.75;;;0.06;100.00
42859;BME280;28505;56.970;40.998;2023-02-04T09:03:35;100101.09;;;0.08;100.00
42859;BME280;28505;56.970;40.998;2023-02-04T09:08:58;100085.47;;;-0.01;100.00
42859;BME280;28505;56.970;40.998;2023-02-04T09:14:20;100122.44;;;0.13;100.00
42859;BME280;28505;56.970;40.998;2023-02-04T09:19:43;100123.78;;;0.22;100.00
42859;BME280;28505;56.970;40.998;2023-02-04T09:25:08;100112.59;;;0.02;100.00
42859;BME280;28505;56.970;40.998;2023-02-04T09:30:32;100113.31;;;0.09;100.00
42859;BME280;28505;56.970;40.998;2023-02-04T09:35:54;100140.44;;;0.11;100.00
42859;BME280;28505;56.970;40.998;2023-02-04T09:41:17;100117.66;;;0.03;100.00
42859;BME280;28505;56.970;40.998;2023-02-04T09:46:43;100116.28;;;0.19;100.00
42859;BME280;28505;56.970;40.998;2023-02-04T09:52:13;100150.31;;;0.40;100.00
42859;BME280;28505;56.970;40.998;2023-02-04T09:57:36;100128.50;;;0.20;100.00
42859;BME280;28505;56.970;40.998;2023-02-04T10:02:59;100153.47;;;0.31;100.00
42859;BME280;28505;56.970;40.998;2023-02-04T10:08:30;100144.84;;;0.35;100.00
42859;BME280;28505;56.970;40.998;2023-02-04T10:13:54;100150.59;;;0.32;100.00
42859;BME280;28505;56.970;40.998;2023-02-04T10:19:18;100161.28;;;0.26;100.00
42859;BME280;28505;56.970;40.998;2023-02-04T10:24:40;100158.97;;;0.29;100.00
42859;BME280;28505;56.970;40.998;2023-02-04T10:30:03;100177.47;;;0.54;100.00
42859;BME280;28505;56.970;40.998;2023-02-04T10:35:26;100155.97;;;0.44;100.00
42859;BME280;28505;56.970;40.998;2023-02-04T10:41:02;100185.88;;;0.51;100.00
42859;BME280;28505;56.970;40.998;2023-02-04T10:46:29;100155.00;;;0.38;100.00
42859;BME280;28505;56.970;40.998;2023-02-04T10:51:52;100166.00;;;0.42;100.00
42859;BME280;28505;56.970;40.998;2023-02-04T10:57:22;100177.03;;;0.39;100.00
42859;BME280;28505;56.970;40.998;2023-02-04T11:02:58;100201.00;;;0.51;100.00
42859;BME280;28505;56.970;40.998;2023-02-04T11:08:30;100177.72;;;0.34;100.00
42859;BME280;28505;56.970;40.998;2023-02-04T11:19:33;100179.25;;;0.42;100.00
42859;BME280;28505;56.970;40.998;2023-02-04T11:24:57;100187.28;;;0.35;100.00
42859;BME280;28505;56.970;40.998;2023-02-04T11:30:21;100166.72;;;0.12;100.00
42859;BME280;28505;56.970;40.998;2023-02-04T11:36:05;100210.13;;;0.36;100.00
42859;BME280;28505;56.970;40.998;2023-02-04T11:41:29;100173.25;;;0.10;100.00
42859;BME280;28505;56.970;40.998;2023-02-04T11:46:55;100229.00;;;0.46;100.00
42859;BME280;28505;56.970;40.998;2023-02-04T11:52:17;100218.53;;;0.33;100.00
42859;BME280;28505;56.970;40.998;2023-02-04T11:57:43;100231.78;;;0.33;100.00
42859;BME280;28505;56.970;40.998;2023-02-04T12:03:24;100247.56;;;0.46;100.00
42859;BME280;28505;56.970;40.998;2023-02-04T12:08:47;100239.75;;;0.33;100.00
42859;BME280;28505;56.970;40.998;2023-02-04T12:14:15;100260.47;;;0.43;100.00
42859;BME280;28505;56.970;40.998;2023-02-04T12:19:37;100256.59;;;0.39;100.00
42859;BME280;28505;56.970;40.998;2023-02-04T12:25:00;100272.00;;;0.49;100.00
42859;BME280;28505;56.970;40.998;2023-02-04T12:30:34;100274.53;;;0.43;100.00
42859;BME280;28505;56.970;40.998;2023-02-04T12:35:57;100278.03;;;0.37;100.00
42859;BME280;28505;56.970;40.998;2023-02-04T12:41:19;100260.19;;;0.26;100.00
42859;BME280;28505;56.970;40.998;2023-02-04T12:46:41;100288.75;;;0.49;100.00
42859;BME280;28505;56.970;40.998;2023-02-04T12:52:04;100294.66;;;0.51;100.00
42859;BME280;28505;56.970;40.998;2023-02-04T12:57:27;100283.91;;;0.46;100.00
42859;BME280;28505;56.970;40.998;2023-02-04T13:02:50;100265.06;;;0.29;100.00
42859;BME280;28505;56.970;40.998;2023-02-04T13:08:12;100308.72;;;0.52;100.00
42859;BME280;28505;56.970;40.998;2023-02-04T13:13:37;100304.22;;;0.52;100.00
42859;BME280;28505;56.970;40.998;2023-02-04T13:18:59;100279.94;;;0.30;100.00
42859;BME280;28505;56.970;40.998;2023-02-04T13:24:21;100284.03;;;0.33;100.00
42859;BME280;28505;56.970;40.998;2023-02-04T13:29:50;100305.13;;;0.46;100.00
42859;BME280;28505;56.970;40.998;2023-02-04T13:35:12;100335.84;;;0.54;100.00
42859;BME280;28505;56.970;40.998;2023-02-04T13:40:34;100306.66;;;0.29;100.00
42859;BME280;28505;56.970;40.998;2023-02-04T13:45:57;100314.44;;;0.30;100.00
42859;BME280;28505;56.970;40.998;2023-02-04T13:51:21;100307.34;;;0.24;100.00
42859;BME280;28505;56.970;40.998;2023-02-04T13:56:43;100308.63;;;0.15;100.00
42859;BME280;28505;56.970;40.998;2023-02-04T14:02:09;100331.78;;;0.26;100.00
42859;BME280;28505;56.970;40.998;2023-02-04T14:07:31;100330.63;;;0.15;100.00
42859;BME280;28505;56.970;40.998;2023-02-04T14:12:55;100327.84;;;0.10;100.00
42859;BME280;28505;56.970;40.998;2023-02-04T14:18:20;100329.06;;;0.08;100.00
42859;BME280;28505;56.970;40.998;2023-02-04T14:23:42;100342.47;;;0.13;100.00
42859;BME280;28505;56.970;40.998;2023-02-04T14:29:05;100342.34;;;0.08;100.00
42859;BME280;28505;56.970;40.998;2023-02-04T14:34:28;100373.47;;;0.12;100.00
42859;BME280;28505;56.970;40.998;2023-02-04T14:39:50;100351.75;;;0.04;100.00
42859;BME280;28505;56.970;40.998;2023-02-04T14:45:13;100380.63;;;0.12;100.00
42859;BME280;28505;56.970;40.998;2023-02-04T14:50:36;100366.19;;;0.08;100.00
42859;BME280;28505;56.970;40.998;2023-02-04T14:55:58;100369.69;;;0.02;100.00
42859;BME280;28505;56.970;40.998;2023-02-04T15:01:21;100378.84;;;0.06;100.00
42859;BME280;28505;56.970;40.998;2023-02-04T15:06:43;100363.41;;;-0.04;100.00
42859;BME280;28505;56.970;40.998;2023-02-04T15:12:06;100408.94;;;0.18;100.00
42859;BME280;28505;56.970;40.998;2023-02-04T15:17:29;100379.69;;;-0.01;100.00
42859;BME280;28505;56.970;40.998;2023-02-04T15:22:52;100389.50;;;-0.08;100.00
42859;BME280;28505;56.970;40.998;2023-02-04T15:28:19;100424.09;;;0.11;100.00
42859;BME280;28505;56.970;40.998;2023-02-04T15:33:41;100419.19;;;0.08;100.00
42859;BME280;28505;56.970;40.998;2023-02-04T15:39:04;100432.63;;;0.13;100.00
42859;BME280;28505;56.970;40.998;2023-02-04T15:44:26;100423.69;;;0.07;100.00
42859;BME280;28505;56.970;40.998;2023-02-04T15:49:49;100434.25;;;0.14;100.00
42859;BME280;28505;56.970;40.998;2023-02-04T15:55:12;100418.44;;;0.01;100.00
42859;BME280;28505;56.970;40.998;2023-02-04T16:00:35;100444.25;;;0.12;100.00
42859;BME280;28505;56.970;40.998;2023-02-04T16:05:57;100436.72;;;0.09;100.00
42859;BME280;28505;56.970;40.998;2023-02-04T16:11:19;100402.59;;;-0.13;100.00
42859;BME280;28505;56.970;40.998;2023-02-04T16:16:41;100442.84;;;0.09;100.00
42859;BME280;28505;56.970;40.998;2023-02-04T16:22:03;100445.31;;;0.04;100.00
42859;BME280;28505;56.970;40.998;2023-02-04T16:27:26;100458.19;;;0.01;100.00
42859;BME280;28505;56.970;40.998;2023-02-04T16:32:49;100463.88;;;0.04;100.00
42859;BME280;28505;56.970;40.998;2023-02-04T16:38:18;100460.88;;;-0.06;100.00
42859;BME280;28505;56.970;40.998;2023-02-04T16:43:43;100459.22;;;-0.07;100.00
42859;BME280;28505;56.970;40.998;2023-02-04T16:49:06;100470.22;;;-0.04;100.00
42859;BME280;28505;56.970;40.998;2023-02-04T16:54:30;100469.81;;;-0.07;100.00
42859;BME280;28505;56.970;40.998;2023-02-04T16:59:52;100463.97;;;-0.16;100.00
42859;BME280;28505;56.970;40.998;2023-02-04T17:05:15;100452.41;;;-0.28;100.00
42859;BME280;28505;56.970;40.998;2023-02-04T17:10:37;100494.72;;;-0.08;100.00
42859;BME280;28505;56.970;40.998;2023-02-04T17:16:17;100500.25;;;-0.10;100.00
42859;BME280;28505;56.970;40.998;2023-02-04T17:21:40;100473.19;;;-0.25;100.00
42859;BME280;28505;56.970;40.998;2023-02-04T17:27:02;100480.91;;;-0.24;100.00
42859;BME280;28505;56.970;40.998;2023-02-04T17:32:26;100491.09;;;-0.20;100.00
42859;BME280;28505;56.970;40.998;2023-02-04T17:37:52;100471.16;;;-0.36;100.00
42859;BME280;28505;56.970;40.998;2023-02-04T17:43:14;100515.72;;;-0.13;100.00
42859;BME280;28505;56.970;40.998;2023-02-04T17:48:36;100512.91;;;-0.18;100.00
42859;BME280;28505;56.970;40.998;2023-02-04T17:53:58;100483.41;;;-0.42;100.00
42859;BME280;28505;56.970;40.998;2023-02-04T17:59:24;100492.16;;;-0.35;100.00
42859;BME280;28505;56.970;40.998;2023-02-04T18:05:22;100475.69;;;-0.50;100.00
42859;BME280;28505;56.970;40.998;2023-02-04T18:10:50;100485.88;;;-0.47;100.00
42859;BME280;28505;56.970;40.998;2023-02-04T18:16:32;100530.22;;;-0.16;100.00
42859;BME280;28505;56.970;40.998;2023-02-04T18:21:54;100527.78;;;-0.24;100.00
42859;BME280;28505;56.970;40.998;2023-02-04T18:27:23;100532.91;;;-0.22;100.00
42859;BME280;28505;56.970;40.998;2023-02-04T18:32:48;100539.00;;;-0.29;100.00
42859;BME280;28505;56.970;40.998;2023-02-04T18:43:44;100553.69;;;-0.26;100.00
42859;BME280;28505;56.970;40.998;2023-02-04T18:49:40;100554.28;;;-0.24;100.00
42859;BME280;28505;56.970;40.998;2023-02-04T18:55:21;100552.03;;;-0.27;100.00
42859;BME280;28505;56.970;40.998;2023-02-04T19:00:49;100559.97;;;-0.20;100.00
42859;BME280;28505;56.970;40.998;2023-02-04T19:06:26;100555.72;;;-0.21;100.00
42859;BME280;28505;56.970;40.998;2023-02-04T19:11:51;100567.75;;;-0.26;100.00
42859;BME280;28505;56.970;40.998;2023-02-04T19:17:25;100566.94;;;-0.19;100.00
42859;BME280;28505;56.970;40.998;2023-02-04T19:22:52;100536.56;;;-0.37;100.00
42859;BME280;28505;56.970;40.998;2023-02-04T19:28:25;100571.81;;;-0.16;100.00
42859;BME280;28505;56.970;40.998;2023-02-04T19:33:49;100532.72;;;-0.41;100.00
42859;BME280;28505;56.970;40.998;2023-02-04T19:44:49;100541.06;;;-0.44;100.00
42859;BME280;28505;56.970;40.998;2023-02-04T19:55:40;100577.31;;;-0.31;100.00
42859;BME280;28505;56.970;40.998;2023-02-04T20:01:05;100592.81;;;-0.28;100.00
42859;BME280;28505;56.970;40.998;2023-02-04T20:06:32;100593.00;;;-0.30;100.00
42859;BME280;28505;56.970;40.998;2023-02-04T20:12:02;100585.69;;;-0.34;100.00
42859;BME280;28505;56.970;40.998;2023-02-04T20:17:39;100594.03;;;-0.24;100.00
42859;BME280;28505;56.970;40.998;2023-02-04T20:23:21;100591.38;;;-0.31;100.00
42859;BME280;28505;56.970;40.998;2023-02-04T20:28:47;100576.53;;;-0.45;100.00
42859;BME280;28505;56.970;40.998;2023-02-04T20:34:21;100598.31;;;-0.36;100.00
42859;BME280;28505;56.970;40.998;2023-02-04T20:39:46;100585.69;;;-0.41;100.00
42859;BME280;28505;56.970;40.998;2023-02-04T20:45:23;100594.69;;;-0.49;100.00
42859;BME280;28505;56.970;40.998;2023-02-04T20:50:47;100608.31;;;-0.45;100.00
42859;BME280;28505;56.970;40.998;2023-02-04T21:01:47;100612.41;;;-0.42;100.00
42859;BME280;28505;56.970;40.998;2023-02-04T21:07:17;100624.00;;;-0.50;100.00
42859;BME280;28505;56.970;40.998;2023-02-04T21:12:39;100614.03;;;-0.55;100.00
42859;BME280;28505;56.970;40.998;2023-02-04T21:18:06;100618.13;;;-0.59;100.00
42859;BME280;28505;56.970;40.998;2023-02-04T21:23:28;100615.88;;;-0.62;100.00
42859;BME280;28505;56.970;40.998;2023-02-04T21:28:51;100638.28;;;-0.51;100.00
42859;BME280;28505;56.970;40.998;2023-02-04T21:34:13;100637.88;;;-0.55;100.00
42859;BME280;28505;56.970;40.998;2023-02-04T21:39:36;100633.38;;;-0.61;100.00
42859;BME280;28505;56.970;40.998;2023-02-04T21:44:58;100632.16;;;-0.65;100.00
42859;BME280;28505;56.970;40.998;2023-02-04T21:50:23;100660.66;;;-0.54;100.00
42859;BME280;28505;56.970;40.998;2023-02-04T21:55:45;100668.84;;;-0.49;100.00
42859;BME280;28505;56.970;40.998;2023-02-04T22:01:08;100638.25;;;-0.64;100.00
42859;BME280;28505;56.970;40.998;2023-02-04T22:06:31;100647.84;;;-0.57;100.00
42859;BME280;28505;56.970;40.998;2023-02-04T22:11:53;100657.00;;;-0.53;100.00
42859;BME280;28505;56.970;40.998;2023-02-04T22:17:15;100642.75;;;-0.65;100.00
42859;BME280;28505;56.970;40.998;2023-02-04T22:22:37;100671.09;;;-0.52;100.00
42859;BME280;28505;56.970;40.998;2023-02-04T22:27:59;100675.53;;;-0.53;100.00
42859;BME280;28505;56.970;40.998;2023-02-04T22:33:22;100686.13;;;-0.53;100.00
42859;BME280;28505;56.970;40.998;2023-02-04T22:38:43;100690.84;;;-0.55;100.00
42859;BME280;28505;56.970;40.998;2023-02-04T22:44:05;100693.25;;;-0.60;100.00
42859;BME280;28505;56.970;40.998;2023-02-04T22:49:27;100698.16;;;-0.63;100.00
42859;BME280;28505;56.970;40.998;2023-02-04T22:54:50;100696.50;;;-0.71;100.00
42859;BME280;28505;56.970;40.998;2023-02-04T23:00:13;100696.09;;;-0.75;100.00
42859;BME280;28505;56.970;40.998;2023-02-04T23:05:35;100709.94;;;-0.73;100.00
42859;BME280;28505;56.970;40.998;2023-02-04T23:10:58;100697.72;;;-0.80;100.00
42859;BME280;28505;56.970;40.998;2023-02-04T23:16:20;100708.72;;;-0.77;100.00
42859;BME280;28505;56.970;40.998;2023-02-04T23:21:43;100702.78;;;-0.85;100.00
42859;BME280;28505;56.970;40.998;2023-02-04T23:27:05;100699.53;;;-0.87;100.00
42859;BME280;28505;56.970;40.998;2023-02-04T23:32:29;100714.00;;;-0.77;100.00
42859;BME280;28505;56.970;40.998;2023-02-04T23:37:53;100679.53;;;-0.97;100.00
42859;BME280;28505;56.970;40.998;2023-02-04T23:43:21;100706.28;;;-0.78;100.00
42859;BME280;28505;56.970;40.998;2023-02-04T23:48:44;100703.59;;;-0.91;100.00
42859;BME280;28505;56.970;40.998;2023-02-04T23:54:06;100693.19;;;-1.00;100.00
42859;BME280;28505;56.970;40.998;2023-02-04T23:59:27;100713.16;;;-0.90;100.00
